Time,TemperatureF,DewpointF,PressureIn,WindDirection,WindDirectionDegrees,WindSpeedMPH,WindSpeedGustMPH,Humidity,HourlyPrecipIn,Conditions,Clouds,dailyrainin,SolarRadiationWatts/m^2,SoftwareType,DateUTC
2013-05-19 00:03:00,53.1,49.0,28.67,WSW,255,1.1,1.5,86,0.00,RA,FEW,0.00,0.0,WeatherDisplay:10.37,2013-05-18 22:03:00,
2013-05-19 00:08:00,53.1,49.0,28.67,WSW,255,1.1,1.5,86,0.00,RA,FEW,0.00,0.0,WeatherDisplay:10.37,2013-05-18 22:08:00,
2013-05-19 00:13:00,52.7,48.3,28.67,SW,220,0.0,0.0,85,0.00,CLR,FEW,0.00,0.0,WeatherDisplay:10.37,2013-05-18 22:13:00,
2013-05-19 00:18:00,52.2,48.1,28.67,WSW,240,0.0,0.0,86,0.00,CLR,FEW,0.00,0.0,WeatherDisplay:10.37,2013-05-18 22:18:00,
2013-05-19 00:23:00,51.8,48.1,28.67,SSW,210,0.0,0.4,87,0.00,CLR,FEW,0.00,0.0,WeatherDisplay:10.37,2013-05-18 22:23:00,
2013-05-19 00:28:00,51.1,47.6,28.67,SSW,210,0.0,0.0,88,0.00,CLR,FEW,0.00,0.0,WeatherDisplay:10.37,2013-05-18 22:28:00,
2013-05-19 00:49:00,51.6,48.5,28.67,SW,215,0.0,0.0,89,0.00,CLR,FEW,0.00,0.0,WeatherDisplay:10.37,2013-05-18 22:49:00,
2013-05-19 00:55:00,51.1,47.6,28.67,SSW,200,0.0,0.0,88,0.00,CLR,FEW,0.00,0.0,WeatherDisplay:10.37,2013-05-18 22:55:00,
2013-05-19 01:01:00,50.4,47.2,28.67,SSE,155,2.3,2.3,89,0.00,CLR,FEW,0.00,0.0,WeatherDisplay:10.37,2013-05-18 23:01:00,
2013-05-19 01:06:00,50.4,47.5,28.67,SW,225,1.1,1.1,90,0.00,CLR,FEW,0.00,0.0,WeatherDisplay:10.37,2013-05-18 23:06:00,
2013-05-19 01:11:00,50.7,47.9,28.67,SSW,205,0.0,0.0,90,0.00,CLR,FEW,0.00,0.0,WeatherDisplay:10.37,2013-05-18 23:11:00,
2013-05-19 01:16:00,52.7,49.2,28.67,SW,215,2.3,2.8,88,0.00,CLR,FEW,0.00,0.0,WeatherDisplay:10.37,2013-05-18 23:16:00,
2013-05-19 01:21:00,51.4,47.4,28.67,South,190,0.0,0.0,86,0.00,CLR,FEW,0.00,0.0,WeatherDisplay:10.37,2013-05-18 23:21:00,
2013-05-19 01:26:00,51.4,47.4,28.67,South,190,0.0,0.0,86,0.00,CLR,FEW,0.00,0.0,WeatherDisplay:10.37,2013-05-18 23:26:00,
2013-05-19 01:31:00,50.4,47.2,28.67,SSE,165,0.0,0.0,89,0.00,CLR,FEW,0.00,0.0,WeatherDisplay:10.37,2013-05-18 23:31:00,
2013-05-19 01:36:00,50.0,46.9,28.67,SSE,165,0.0,0.0,89,0.00,CLR,FEW,0.00,0.0,WeatherDisplay:10.37,2013-05-18 23:36:00,
2013-05-19 01:41:00,50.0,47.2,28.67,SW,220,0.0,0.0,90,0.00,CLR,FEW,0.00,0.0,WeatherDisplay:10.37,2013-05-18 23:41:00,
2013-05-19 01:46:00,50.0,47.2,28.67,SSW,205,2.3,2.3,90,0.00,CLR,FEW,0.00,0.0,WeatherDisplay:10.37,2013-05-18 23:46:00,
2013-05-19 01:51:00,49.6,46.8,28.67,SSE,165,0.0,0.0,90,0.00,CLR,FEW,0.00,0.0,WeatherDisplay:10.37,2013-05-18 23:51:00,
2013-05-19 01:56:00,49.6,46.8,28.67,SSE,165,0.0,0.0,90,0.00,CLR,FEW,0.00,0.0,WeatherDisplay:10.37,2013-05-18 23:56:00,
2013-05-19 02:01:00,49.6,47.1,28.67,SW,215,0.0,0.0,91,0.00,CLR,FEW,0.00,0.0,WeatherDisplay:10.37,2013-05-19 00:01:00,
2013-05-19 02:06:00,49.3,46.8,28.67,SW,215,0.0,0.0,91,0.00,CLR,FEW,0.00,0.0,WeatherDisplay:10.37,2013-05-19 00:06:00,
2013-05-19 02:11:00,48.9,46.4,28.67,SSE,160,0.0,0.0,91,0.00,CLR,FEW,0.00,0.0,WeatherDisplay:10.37,2013-05-19 00:11:00,
2013-05-19 02:16:00,49.6,47.4,28.67,WSW,240,0.0,0.0,92,0.00,CLR,FEW,0.00,0.0,WeatherDisplay:10.37,2013-05-19 00:16:00,
2013-05-19 02:21:00,50.9,48.7,28.67,WSW,250,1.1,1.1,92,0.00,CLR,FEW,0.00,0.0,WeatherDisplay:10.37,2013-05-19 00:21:00,
2013-05-19 02:26:00,50.9,48.7,28.67,WSW,250,1.1,1.1,92,0.00,CLR,FEW,0.00,0.0,WeatherDisplay:10.37,2013-05-19 00:26:00,
2013-05-19 02:31:00,50.0,47.5,28.67,SSW,200,0.0,0.0,91,0.00,CLR,FEW,0.00,0.0,WeatherDisplay:10.37,2013-05-19 00:31:00,
2013-05-19 02:36:00,50.0,47.5,28.67,SSW,200,0.0,0.0,91,0.00,CLR,FEW,0.00,0.0,WeatherDisplay:10.37,2013-05-19 00:36:00,
2013-05-19 02:41:00,49.3,46.8,28.67,SW,215,1.1,1.3,91,0.00,CLR,FEW,0.00,0.0,WeatherDisplay:10.37,2013-05-19 00:41:00,
2013-05-19 02:46:00,48.7,46.5,28.67,SW,215,1.1,1.1,92,0.00,CLR,FEW,0.00,0.0,WeatherDisplay:10.37,2013-05-19 00:46:00,
2013-05-19 02:51:00,49.3,47.1,28.67,SW,225,1.1,1.1,92,0.00,CLR,FEW,0.00,0.0,WeatherDisplay:10.37,2013-05-19 00:51:00,
2013-05-19 02:56:00,49.3,47.1,28.67,SW,225,1.1,1.1,92,0.00,CLR,FEW,0.00,0.0,WeatherDisplay:10.37,2013-05-19 00:56:00,
2013-05-19 03:01:00,50.2,47.9,28.67,WSW,240,1.1,1.1,92,0.00,CLR,FEW,0.00,0.0,WeatherDisplay:10.37,2013-05-19 01:01:00,
2013-05-19 03:06:00,50.4,48.1,28.67,WSW,250,1.1,1.5,92,0.00,CLR,FEW,0.00,0.0,WeatherDisplay:10.37,2013-05-19 01:06:00,
2013-05-19 03:11:00,49.6,47.1,28.64,South,180,0.0,0.0,91,0.00,CLR,FEW,0.00,0.0,WeatherDisplay:10.37,2013-05-19 01:11:00,
2013-05-19 03:16:00,48.7,46.2,28.64,SSW,210,0.0,0.0,91,0.00,CLR,FEW,0.00,0.0,WeatherDisplay:10.37,2013-05-19 01:16:00,
2013-05-19 03:21:00,48.6,46.3,28.64,South,185,0.0,0.0,92,0.00,CLR,FEW,0.00,0.0,WeatherDisplay:10.37,2013-05-19 01:21:00,
2013-05-19 03:26:00,48.6,46.3,28.64,South,185,0.0,0.0,92,0.00,CLR,FEW,0.00,0.0,WeatherDisplay:10.37,2013-05-19 01:26:00,
2013-05-19 03:31:00,48.6,46.3,28.64,SW,225,0.0,0.0,92,0.00,CLR,FEW,0.00,0.0,WeatherDisplay:10.37,2013-05-19 01:31:00,
2013-05-19 03:36:00,48.0,45.8,28.64,SW,220,0.0,0.0,92,0.00,CLR,FEW,0.00,0.0,WeatherDisplay:10.37,2013-05-19 01:36:00,
2013-05-19 03:41:00,47.1,44.9,28.64,South,185,0.0,0.0,92,0.00,CLR,FEW,0.00,0.0,WeatherDisplay:10.37,2013-05-19 01:41:00,
2013-05-19 03:48:00,46.8,44.8,28.64,South,185,0.0,0.0,93,0.00,CLR,FEW,0.00,0.0,WeatherDisplay:10.37,2013-05-19 01:48:00,
2013-05-19 03:53:00,46.6,44.7,28.64,South,185,0.0,0.0,93,0.00,CLR,FEW,0.00,0.0,WeatherDisplay:10.37,2013-05-19 01:53:00,
2013-05-19 03:58:00,46.8,44.8,28.64,SSW,200,0.0,0.0,93,0.00,CLR,FEW,0.00,0.0,WeatherDisplay:10.37,2013-05-19 01:58:00,
2013-05-19 04:03:00,46.4,44.5,28.64,South,185,0.0,0.0,93,0.00,CLR,FEW,0.00,0.0,WeatherDisplay:10.37,2013-05-19 02:03:00,
2013-05-19 04:08:00,45.7,43.8,28.64,NNW,335,0.0,0.0,93,0.00,CLR,FEW,0.00,0.0,WeatherDisplay:10.37,2013-05-19 02:08:00,
2013-05-19 04:13:00,45.7,43.8,28.64,NNW,335,0.0,0.0,93,0.00,CLR,FEW,0.00,0.0,WeatherDisplay:10.37,2013-05-19 02:13:00,
2013-05-19 04:18:00,46.4,44.8,28.64,West,280,0.0,0.0,94,0.00,CLR,FEW,0.00,0.0,WeatherDisplay:10.37,2013-05-19 02:18:00,
2013-05-19 04:23:00,45.7,44.1,28.64,SW,215,0.0,0.0,94,0.00,CLR,FEW,0.00,0.0,WeatherDisplay:10.37,2013-05-19 02:23:00,
2013-05-19 04:28:00,45.9,44.2,28.64,SW,215,0.0,0.0,94,0.00,CLR,FEW,0.00,0.0,WeatherDisplay:10.37,2013-05-19 02:28:00,
2013-05-19 04:33:00,45.5,44.2,28.64,SW,215,0.0,0.0,95,0.00,CLR,FEW,0.00,0.0,WeatherDisplay:10.37,2013-05-19 02:33:00,
2013-05-19 04:38:00,45.5,44.2,28.64,SW,215,0.0,0.0,95,0.00,CLR,FEW,0.00,0.0,WeatherDisplay:10.37,2013-05-19 02:38:00,
2013-05-19 04:43:00,45.7,44.3,28.64,SW,215,0.0,0.0,95,0.00,CLR,FEW,0.00,0.0,WeatherDisplay:10.37,2013-05-19 02:43:00,
2013-05-19 04:48:00,45.7,44.3,28.64,SSW,210,0.0,0.0,95,0.00,CLR,FEW,0.00,0.0,WeatherDisplay:10.37,2013-05-19 02:48:00,
2013-05-19 04:53:00,45.7,44.3,28.64,SSW,210,0.0,0.0,95,0.00,CLR,FEW,0.00,0.0,WeatherDisplay:10.37,2013-05-19 02:53:00,
2013-05-19 04:58:00,45.7,44.3,28.64,SSW,210,0.0,0.0,95,0.00,CLR,FEW,0.00,0.0,WeatherDisplay:10.37,2013-05-19 02:58:00,
2013-05-19 05:03:00,45.3,44.0,28.64,SW,235,0.0,0.0,95,0.00,OVC,FEW,0.00,0.0,WeatherDisplay:10.37,2013-05-19 03:03:00,
2013-05-19 05:08:00,46.2,44.9,28.64,SW,215,0.0,0.0,95,0.00,OVC,FEW,0.00,0.0,WeatherDisplay:10.37,2013-05-19 03:08:00,
2013-05-19 05:13:00,46.2,44.9,28.64,SW,215,0.0,0.0,95,0.00,OVC,FEW,0.00,0.0,WeatherDisplay:10.37,2013-05-19 03:13:00,
2013-05-19 05:18:00,47.1,45.8,28.64,SW,215,1.1,1.1,95,0.00,OVC,FEW,0.00,0.0,WeatherDisplay:10.37,2013-05-19 03:18:00,
2013-05-19 05:23:00,46.0,44.7,28.64,SSW,200,0.0,0.0,95,0.00,OVC,FEW,0.00,0.0,WeatherDisplay:10.37,2013-05-19 03:23:00,
2013-05-19 05:28:00,46.4,45.0,28.64,SSW,205,0.0,0.2,95,0.00,OVC,FEW,0.00,0.0,WeatherDisplay:10.37,2013-05-19 03:28:00,
2013-05-19 05:33:00,46.4,45.0,28.64,SSW,205,0.0,0.2,95,0.00,OVC,FEW,0.00,0.0,WeatherDisplay:10.37,2013-05-19 03:33:00,
2013-05-19 05:38:00,46.4,45.0,28.64,SSW,205,0.0,0.2,95,0.00,OVC,FEW,0.00,0.0,WeatherDisplay:10.37,2013-05-19 03:38:00,
2013-05-19 05:43:00,46.9,45.6,28.64,SSW,210,1.1,1.5,95,0.00,OVC,FEW,0.00,0.0,WeatherDisplay:10.37,2013-05-19 03:43:00,
2013-05-19 05:48:00,46.9,45.6,28.64,SW,215,0.0,0.0,95,0.00,OVC,FEW,0.00,0.0,WeatherDisplay:10.37,2013-05-19 03:48:00,
2013-05-19 05:53:00,47.3,45.9,28.64,SSW,195,0.0,0.0,95,0.00,OVC,FEW,0.00,0.0,WeatherDisplay:10.37,2013-05-19 03:53:00,
2013-05-19 05:58:00,48.4,47.0,28.64,WSW,250,0.0,0.0,95,0.00,OVC,FEW,0.00,0.0,WeatherDisplay:10.37,2013-05-19 03:58:00,
2013-05-19 06:01:00,48.4,47.0,28.64,SW,228,0.0,1.0,95,0.00,OVC,FEW,0.00,0.0,WeatherDisplay:10.37,2013-05-19 04:01:00,
2013-05-19 06:06:00,49.3,47.9,28.64,WSW,240,1.1,1.1,95,0.00,OVC,FEW,0.00,0.0,WeatherDisplay:10.37,2013-05-19 04:06:00,
2013-05-19 06:11:00,48.4,46.7,28.64,NW,310,0.0,0.0,94,0.00,OVC,FEW,0.00,0.0,WeatherDisplay:10.37,2013-05-19 04:11:00,
2013-05-19 06:16:00,48.7,47.1,28.64,NW,310,0.0,0.0,94,0.00,OVC,FEW,0.00,0.0,WeatherDisplay:10.37,2013-05-19 04:16:00,
2013-05-19 06:21:00,50.9,49.2,28.64,NW,310,0.0,0.0,94,0.00,OVC,FEW,0.00,0.0,WeatherDisplay:10.37,2013-05-19 04:21:00,
2013-05-19 06:26:00,50.9,49.2,28.64,NW,310,0.0,0.0,94,0.00,OVC,FEW,0.00,0.0,WeatherDisplay:10.37,2013-05-19 04:26:00,
2013-05-19 06:31:00,49.8,47.6,28.64,NW,315,0.0,0.0,92,0.00,OVC,FEW,0.00,0.0,WeatherDisplay:10.37,2013-05-19 04:31:00,
2013-05-19 06:36:00,51.1,48.2,28.64,NW,315,0.0,0.0,90,0.00,OVC,FEW,0.00,0.0,WeatherDisplay:10.37,2013-05-19 04:36:00,
2013-05-19 06:41:00,50.4,46.9,28.64,NNW,330,0.0,0.0,88,0.00,OVC,FEW,0.00,0.0,WeatherDisplay:10.37,2013-05-19 04:41:00,
2013-05-19 06:46:00,51.8,48.4,28.64,NNW,330,0.0,0.0,88,0.00,OVC,FEW,0.00,0.0,WeatherDisplay:10.37,2013-05-19 04:46:00,
2013-05-19 06:51:00,52.5,49.1,28.64,SSW,205,0.0,0.0,88,0.00,OVC,FEW,0.00,0.0,WeatherDisplay:10.37,2013-05-19 04:51:00,
2013-05-19 06:56:00,52.5,49.1,28.64,SSW,205,0.0,0.0,88,0.00,OVC,FEW,0.00,0.0,WeatherDisplay:10.37,2013-05-19 04:56:00,
2013-05-19 07:01:00,54.1,50.0,28.64,SSE,165,1.1,1.7,86,0.00,OVC,FEW,0.00,0.0,WeatherDisplay:10.37,2013-05-19 05:01:00,
2013-05-19 07:06:00,54.0,49.9,28.64,SSW,200,2.3,2.3,86,0.00,OVC,FEW,0.00,0.0,WeatherDisplay:10.37,2013-05-19 05:06:00,
2013-05-19 07:11:00,54.5,50.7,28.64,SSW,195,2.3,2.4,87,0.00,OVC,FEW,0.00,0.0,WeatherDisplay:10.37,2013-05-19 05:11:00,
2013-05-19 07:16:00,54.5,50.7,28.64,ESE,105,3.5,3.5,87,0.00,OVC,FEW,0.00,0.0,WeatherDisplay:10.37,2013-05-19 05:16:00,
2013-05-19 07:21:00,54.5,50.7,28.64,SSE,150,3.5,3.5,87,0.00,OVC,FEW,0.00,0.0,WeatherDisplay:10.37,2013-05-19 05:21:00,
2013-05-19 07:26:00,54.5,50.7,28.64,SSE,150,3.5,3.5,87,0.00,OVC,FEW,0.00,0.0,WeatherDisplay:10.37,2013-05-19 05:26:00,
2013-05-19 07:33:00,55.2,51.4,28.64,SSE,155,4.6,4.6,87,0.00,OVC,FEW,0.00,0.0,WeatherDisplay:10.37,2013-05-19 05:33:00,
2013-05-19 07:38:00,55.6,51.5,28.64,SSE,155,5.8,5.8,86,0.00,OVC,FEW,0.00,0.0,WeatherDisplay:10.37,2013-05-19 05:38:00,
2013-05-19 07:43:00,55.9,51.8,28.64,South,175,4.6,5.1,86,0.00,OVC,FEW,0.00,0.0,WeatherDisplay:10.37,2013-05-19 05:43:00,
2013-05-19 07:48:00,56.5,52.3,28.64,South,190,4.6,4.6,86,0.00,OVC,FEW,0.00,0.0,WeatherDisplay:10.37,2013-05-19 05:48:00,
2013-05-19 07:53:00,56.8,52.4,28.64,South,170,5.8,5.8,85,0.00,OVC,FEW,0.00,0.0,WeatherDisplay:10.37,2013-05-19 05:53:00,
2013-05-19 07:58:00,56.8,52.1,28.64,South,185,4.6,4.6,84,0.00,OVC,FEW,0.00,0.0,WeatherDisplay:10.37,2013-05-19 05:58:00,
2013-05-19 08:03:00,57.2,52.4,28.64,SSE,160,4.6,4.6,84,0.00,OVC,FEW,0.00,0.0,WeatherDisplay:10.37,2013-05-19 06:03:00,
2013-05-19 08:08:00,57.6,52.4,28.64,SE,130,4.6,4.6,83,0.00,OVC,FEW,0.00,0.0,WeatherDisplay:10.37,2013-05-19 06:08:00,
2013-05-19 08:13:00,57.6,52.4,28.64,SE,130,4.6,4.6,83,0.00,OVC,FEW,0.00,0.0,WeatherDisplay:10.37,2013-05-19 06:13:00,
2013-05-19 08:18:00,58.3,52.8,28.64,SSE,155,3.5,3.5,82,0.00,OVC,FEW,0.00,0.0,WeatherDisplay:10.37,2013-05-19 06:18:00,
2013-05-19 08:23:00,58.3,52.8,28.64,ESE,120,5.8,5.8,82,0.00,OVC,FEW,0.00,0.0,WeatherDisplay:10.37,2013-05-19 06:23:00,
2013-05-19 08:28:00,59.0,53.2,28.64,SE,130,5.8,5.8,81,0.00,OVC,FEW,0.00,0.0,WeatherDisplay:10.37,2013-05-19 06:28:00,
2013-05-19 08:33:00,59.4,53.2,28.61,SSE,165,5.8,5.8,80,0.00,OVC,FEW,0.00,0.0,WeatherDisplay:10.37,2013-05-19 06:33:00,
2013-05-19 08:38:00,59.4,53.2,28.61,SSE,165,5.8,5.8,80,0.00,OVC,FEW,0.00,0.0,WeatherDisplay:10.37,2013-05-19 06:38:00,
2013-05-19 08:43:00,59.4,53.2,28.61,SSE,165,5.8,5.8,80,0.00,OVC,FEW,0.00,0.0,WeatherDisplay:10.37,2013-05-19 06:43:00,
2013-05-19 08:48:00,59.7,52.8,28.61,SSW,205,5.8,5.8,78,0.00,OVC,FEW,0.00,0.0,WeatherDisplay:10.37,2013-05-19 06:48:00,
2013-05-19 08:53:00,60.4,54.2,28.61,South,185,5.8,5.8,80,0.00,OVC,FEW,0.00,0.0,WeatherDisplay:10.37,2013-05-19 06:53:00,
2013-05-19 08:58:00,60.8,53.5,28.61,South,175,5.8,5.8,77,0.00,OVC,FEW,0.00,0.0,WeatherDisplay:10.37,2013-05-19 06:58:00,
2013-05-19 09:03:00,60.8,53.5,28.61,South,190,6.9,7.1,77,0.00,OVC,FEW,0.00,0.0,WeatherDisplay:10.37,2013-05-19 07:03:00,
2013-05-19 09:08:00,61.2,53.2,28.61,SSE,165,4.6,4.9,75,0.00,OVC,FEW,0.00,0.0,WeatherDisplay:10.37,2013-05-19 07:08:00,
2013-05-19 09:13:00,61.2,53.2,28.61,SSE,165,4.6,4.9,75,0.00,OVC,FEW,0.00,0.0,WeatherDisplay:10.37,2013-05-19 07:13:00,
2013-05-19 09:18:00,61.5,53.2,28.61,SE,130,4.6,5.1,74,0.00,OVC,FEW,0.00,0.0,WeatherDisplay:10.37,2013-05-19 07:18:00,
2013-05-19 09:23:00,62.2,53.5,28.61,SSE,160,4.6,4.6,73,0.00,OVC,FEW,0.00,0.0,WeatherDisplay:10.37,2013-05-19 07:23:00,
2013-05-19 09:28:00,62.4,53.6,28.61,South,175,6.9,7.3,73,0.00,OVC,FEW,0.00,0.0,WeatherDisplay:10.37,2013-05-19 07:28:00,
2013-05-19 09:33:00,62.8,53.2,28.61,SSE,160,5.8,5.8,71,0.00,OVC,FEW,0.00,0.0,WeatherDisplay:10.37,2013-05-19 07:33:00,
2013-05-19 09:38:00,62.8,53.2,28.61,SSE,160,5.8,5.8,71,0.00,OVC,FEW,0.00,0.0,WeatherDisplay:10.37,2013-05-19 07:38:00,
2013-05-19 09:43:00,63.1,54.0,28.61,SE,130,5.8,5.8,72,0.00,OVC,FEW,0.00,0.0,WeatherDisplay:10.37,2013-05-19 07:43:00,
2013-05-19 09:49:00,63.7,54.1,28.61,East,95,6.9,6.9,71,0.00,OVC,FEW,0.00,0.0,WeatherDisplay:10.37,2013-05-19 07:49:00,
2013-05-19 09:54:00,63.3,54.1,28.61,East,100,6.9,7.3,72,0.00,OVC,FEW,0.00,0.0,WeatherDisplay:10.37,2013-05-19 07:54:00,
2013-05-19 09:59:00,63.3,53.8,28.61,SSE,150,8.1,8.1,71,0.00,OVC,FEW,0.00,0.0,WeatherDisplay:10.37,2013-05-19 07:59:00,
2013-05-19 10:04:00,64.2,53.8,28.61,South,185,6.9,7.1,69,0.00,OVC,FEW,0.00,0.0,WeatherDisplay:10.37,2013-05-19 08:04:00,
2013-05-19 10:09:00,64.6,53.8,28.58,South,185,8.1,8.1,68,0.00,OVC,FEW,0.00,0.0,WeatherDisplay:10.37,2013-05-19 08:09:00,
2013-05-19 10:14:00,64.6,53.8,28.58,South,185,8.1,8.1,68,0.00,OVC,FEW,0.00,0.0,WeatherDisplay:10.37,2013-05-19 08:14:00,
2013-05-19 10:19:00,64.4,53.6,28.58,SSE,155,5.8,5.8,68,0.00,OVC,FEW,0.00,0.0,WeatherDisplay:10.37,2013-05-19 08:19:00,
2013-05-19 10:24:00,64.2,53.4,28.58,SE,140,9.2,9.2,68,0.00,OVC,FEW,0.00,0.0,WeatherDisplay:10.37,2013-05-19 08:24:00,
2013-05-19 10:29:00,64.2,53.0,28.58,SE,140,11.5,11.5,67,0.00,OVC,FEW,0.00,0.0,WeatherDisplay:10.37,2013-05-19 08:29:00,
2013-05-19 10:34:00,65.5,53.4,28.58,SSE,150,8.1,8.5,65,0.00,OVC,FEW,0.00,0.0,WeatherDisplay:10.37,2013-05-19 08:34:00,
2013-05-19 10:39:00,65.5,53.4,28.58,SSE,150,8.1,8.5,65,0.00,OVC,FEW,0.00,0.0,WeatherDisplay:10.37,2013-05-19 08:39:00,
2013-05-19 10:44:00,65.1,52.6,28.58,SE,140,11.5,11.5,64,0.00,OVC,FEW,0.00,0.0,WeatherDisplay:10.37,2013-05-19 08:44:00,
2013-05-19 10:49:00,65.8,53.7,28.58,SE,145,8.1,8.3,65,0.00,OVC,FEW,0.00,0.0,WeatherDisplay:10.37,2013-05-19 08:49:00,
2013-05-19 10:54:00,66.2,53.7,28.58,SSE,160,8.1,8.1,64,0.00,OVC,FEW,0.00,0.0,WeatherDisplay:10.37,2013-05-19 08:54:00,
2013-05-19 10:59:00,66.7,54.6,28.58,SSW,200,8.1,8.1,65,0.00,OVC,FEW,0.00,0.0,WeatherDisplay:10.37,2013-05-19 08:59:00,
2013-05-19 11:04:00,66.4,53.0,28.58,South,180,10.4,10.4,62,0.00,OVC,FEW,0.00,0.0,WeatherDisplay:10.37,2013-05-19 09:04:00,
2013-05-19 11:09:00,66.7,53.7,28.58,South,170,11.5,11.5,63,0.00,OVC,FEW,0.00,0.0,WeatherDisplay:10.37,2013-05-19 09:09:00,
2013-05-19 11:14:00,66.9,53.5,28.58,South,170,11.5,11.5,62,0.00,OVC,FEW,0.00,0.0,WeatherDisplay:10.37,2013-05-19 09:14:00,
2013-05-19 11:19:00,66.9,53.5,28.58,South,170,11.5,11.5,62,0.00,OVC,FEW,0.00,0.0,WeatherDisplay:10.37,2013-05-19 09:19:00,
2013-05-19 11:24:00,67.6,53.7,28.58,South,175,10.4,10.4,61,0.00,OVC,FEW,0.00,0.0,WeatherDisplay:10.37,2013-05-19 09:24:00,
2013-05-19 11:29:00,67.8,53.9,28.58,South,170,10.4,10.5,61,0.00,OVC,FEW,0.00,0.0,WeatherDisplay:10.37,2013-05-19 09:29:00,
2013-05-19 11:34:00,67.6,53.7,28.58,South,170,9.2,9.6,61,0.00,OVC,FEW,0.00,0.0,WeatherDisplay:10.37,2013-05-19 09:34:00,
2013-05-19 11:39:00,67.3,55.5,28.58,SE,145,10.4,10.5,66,0.00,OVC,FEW,0.00,0.0,WeatherDisplay:10.37,2013-05-19 09:39:00,
2013-05-19 11:44:00,67.3,55.5,28.58,SE,145,10.4,10.5,66,0.00,OVC,FEW,0.00,0.0,WeatherDisplay:10.37,2013-05-19 09:44:00,
2013-05-19 11:49:00,66.6,54.4,28.58,South,175,11.5,11.5,65,0.00,OVC,FEW,0.00,0.0,WeatherDisplay:10.37,2013-05-19 09:49:00,
2013-05-19 11:54:00,67.1,54.9,28.58,South,175,11.5,11.5,65,0.00,OVC,FEW,0.00,0.0,WeatherDisplay:10.37,2013-05-19 09:54:00,
2013-05-19 11:59:00,67.6,55.5,28.58,SSE,150,8.1,8.3,65,0.00,OVC,FEW,0.00,0.0,WeatherDisplay:10.37,2013-05-19 09:59:00,
2013-05-19 12:04:00,67.6,55.5,28.58,SW,220,9.2,9.8,65,0.00,OVC,FEW,0.00,0.0,WeatherDisplay:10.37,2013-05-19 10:04:00,
2013-05-19 12:09:00,67.5,55.3,28.58,South,185,12.7,12.7,65,0.00,OVC,FEW,0.00,0.0,WeatherDisplay:10.37,2013-05-19 10:09:00,
2013-05-19 12:14:00,67.6,55.5,28.58,SSE,165,12.7,12.8,65,0.00,OVC,FEW,0.00,0.0,WeatherDisplay:10.37,2013-05-19 10:14:00,
2013-05-19 12:19:00,67.6,55.5,28.58,SSE,165,12.7,12.8,65,0.00,OVC,FEW,0.00,0.0,WeatherDisplay:10.37,2013-05-19 10:19:00,
2013-05-19 12:24:00,68.0,56.2,28.58,SSE,150,11.5,11.5,66,0.00,OVC,FEW,0.00,0.0,WeatherDisplay:10.37,2013-05-19 10:24:00,
2013-05-19 12:29:00,68.0,56.2,28.58,SSE,150,11.5,11.7,66,0.00,OVC,FEW,0.00,0.0,WeatherDisplay:10.37,2013-05-19 10:29:00,
2013-05-19 12:34:00,68.2,56.4,28.56,South,190,12.7,13.2,66,0.00,OVC,FEW,0.00,0.0,WeatherDisplay:10.37,2013-05-19 10:34:00,
2013-05-19 12:39:00,68.2,56.8,28.56,SSE,160,13.8,13.8,67,0.00,OVC,FEW,0.00,0.0,WeatherDisplay:10.37,2013-05-19 10:39:00,
2013-05-19 12:44:00,68.2,56.8,28.56,SSE,160,13.8,13.8,67,0.00,OVC,FEW,0.00,0.0,WeatherDisplay:10.37,2013-05-19 10:44:00,
2013-05-19 12:49:00,69.1,57.2,28.56,SSE,160,12.7,12.7,66,0.00,OVC,FEW,0.00,0.0,WeatherDisplay:10.37,2013-05-19 10:49:00,
2013-05-19 12:54:00,68.5,56.7,28.58,SSW,200,11.5,11.9,66,0.00,OVC,FEW,0.00,0.0,WeatherDisplay:10.37,2013-05-19 10:54:00,
2013-05-19 12:59:00,69.3,57.4,28.58,South,180,10.4,10.4,66,0.00,OVC,FEW,0.00,0.0,WeatherDisplay:10.37,2013-05-19 10:59:00,
2013-05-19 13:04:00,68.9,56.2,28.58,SSW,200,11.5,11.5,64,0.00,OVC,FEW,0.00,0.0,WeatherDisplay:10.37,2013-05-19 11:04:00,
2013-05-19 13:09:00,69.3,57.0,28.58,SSW,210,13.8,13.8,65,0.00,OVC,FEW,0.00,0.0,WeatherDisplay:10.37,2013-05-19 11:09:00,
2013-05-19 13:14:00,70.0,57.2,28.58,SSE,160,11.5,11.9,64,0.00,OVC,FEW,0.00,0.0,WeatherDisplay:10.37,2013-05-19 11:14:00,
2013-05-19 13:19:00,70.0,57.2,28.58,SSE,160,11.5,11.9,64,0.00,OVC,FEW,0.00,0.0,WeatherDisplay:10.37,2013-05-19 11:19:00,
2013-05-19 13:24:00,70.3,57.1,28.58,South,170,11.5,12.1,63,0.00,OVC,FEW,0.00,0.0,WeatherDisplay:10.37,2013-05-19 11:24:00,
2013-05-19 13:29:00,69.8,56.6,28.58,SSE,165,13.8,13.9,63,0.00,OVC,FEW,0.00,0.0,WeatherDisplay:10.37,2013-05-19 11:29:00,
2013-05-19 13:34:00,70.7,57.5,28.56,South,185,12.7,12.8,63,0.00,OVC,FEW,0.00,0.0,WeatherDisplay:10.37,2013-05-19 11:34:00,
2013-05-19 13:39:00,69.8,56.2,28.56,SSE,150,16.1,16.1,62,0.00,OVC,FEW,0.00,0.0,WeatherDisplay:10.37,2013-05-19 11:39:00,
2013-05-19 13:44:00,69.8,56.2,28.56,SSE,150,16.1,16.1,62,0.00,OVC,FEW,0.00,0.0,WeatherDisplay:10.37,2013-05-19 11:44:00,
2013-05-19 13:49:00,70.7,56.6,28.56,SSW,195,10.4,10.4,61,0.00,OVC,FEW,0.00,0.0,WeatherDisplay:10.37,2013-05-19 11:49:00,
2013-05-19 13:54:00,71.1,57.4,28.56,South,185,10.4,10.4,62,0.00,OVC,FEW,0.00,0.0,WeatherDisplay:10.37,2013-05-19 11:54:00,
2013-05-19 13:59:00,70.7,56.6,28.56,South,175,12.7,13.0,61,0.00,OVC,FEW,0.00,0.0,WeatherDisplay:10.37,2013-05-19 11:59:00,
2013-05-19 14:04:00,71.1,57.4,28.56,East,100,9.2,9.8,62,0.00,OVC,FEW,0.00,0.0,WeatherDisplay:10.37,2013-05-19 12:04:00,
2013-05-19 14:09:00,71.6,57.0,28.56,SSW,195,10.4,10.5,60,0.00,OVC,FEW,0.00,0.0,WeatherDisplay:10.37,2013-05-19 12:09:00,
2013-05-19 14:14:00,72.7,58.0,28.56,South,170,9.2,9.2,60,0.00,OVC,FEW,0.00,0.0,WeatherDisplay:10.37,2013-05-19 12:14:00,
2013-05-19 14:19:00,72.7,58.0,28.56,South,170,9.2,9.2,60,0.00,OVC,FEW,0.00,0.0,WeatherDisplay:10.37,2013-05-19 12:19:00,
2013-05-19 14:24:00,72.3,58.1,28.56,SE,145,10.4,10.7,61,0.00,OVC,FEW,0.00,0.0,WeatherDisplay:10.37,2013-05-19 12:24:00,
2013-05-19 14:29:00,72.7,58.5,28.56,SSE,155,9.2,9.2,61,0.00,OVC,FEW,0.00,0.0,WeatherDisplay:10.37,2013-05-19 12:29:00,
2013-05-19 14:34:00,72.7,57.5,28.56,SSW,200,15.0,15.0,59,0.00,OVC,FEW,0.00,0.0,WeatherDisplay:10.37,2013-05-19 12:34:00,
2013-05-19 14:39:00,72.5,57.8,28.56,South,190,13.8,13.8,60,0.00,OVC,FEW,0.00,0.0,WeatherDisplay:10.37,2013-05-19 12:39:00,
2013-05-19 14:44:00,72.5,57.8,28.56,South,190,13.8,13.8,60,0.00,OVC,FEW,0.00,0.0,WeatherDisplay:10.37,2013-05-19 12:44:00,
2013-05-19 14:49:00,72.5,57.4,28.56,SSW,205,12.7,12.8,59,0.00,OVC,FEW,0.00,0.0,WeatherDisplay:10.37,2013-05-19 12:49:00,
2013-05-19 14:54:00,73.9,58.2,28.56,SSW,200,5.8,5.8,58,0.00,OVC,FEW,0.00,0.0,WeatherDisplay:10.37,2013-05-19 12:54:00,
2013-05-19 14:59:00,73.0,56.4,28.56,SSE,165,16.1,16.2,56,0.00,OVC,FEW,0.00,0.0,WeatherDisplay:10.37,2013-05-19 12:59:00,
2013-05-19 15:04:00,73.2,56.6,28.56,SSE,150,10.4,10.5,56,0.00,OVC,FEW,0.00,0.0,WeatherDisplay:10.37,2013-05-19 13:04:00,
2013-05-19 15:09:00,73.9,56.2,28.56,South,185,10.4,10.5,54,0.00,OVC,FEW,0.00,0.0,WeatherDisplay:10.37,2013-05-19 13:09:00,
2013-05-19 15:14:00,73.6,55.9,28.56,WSW,240,11.5,12.1,54,0.00,OVC,FEW,0.00,0.0,WeatherDisplay:10.37,2013-05-19 13:14:00,
2013-05-19 15:19:00,73.6,55.9,28.56,WSW,240,11.5,12.1,54,0.00,OVC,FEW,0.00,0.0,WeatherDisplay:10.37,2013-05-19 13:19:00,
2013-05-19 15:24:00,74.3,56.6,28.56,South,175,11.5,11.5,54,0.00,OVC,FEW,0.00,0.0,WeatherDisplay:10.37,2013-05-19 13:24:00,
2013-05-19 15:29:00,74.5,56.7,28.56,SSE,165,10.4,10.4,54,0.00,OVC,FEW,0.00,0.0,WeatherDisplay:10.37,2013-05-19 13:29:00,
2013-05-19 15:34:00,74.5,56.7,28.53,SSW,200,9.2,9.8,54,0.00,OVC,FEW,0.00,0.0,WeatherDisplay:10.37,2013-05-19 13:34:00,
2013-05-19 15:39:00,73.4,55.2,28.53,SSW,200,11.5,11.9,53,0.00,OVC,FEW,0.00,0.0,WeatherDisplay:10.37,2013-05-19 13:39:00,
2013-05-19 15:44:00,73.4,55.2,28.53,SSW,200,11.5,11.9,53,0.00,OVC,FEW,0.00,0.0,WeatherDisplay:10.37,2013-05-19 13:44:00,
2013-05-19 15:49:00,73.8,56.1,28.53,SSW,205,10.4,10.4,54,0.00,OVC,FEW,0.00,0.0,WeatherDisplay:10.37,2013-05-19 13:49:00,
2013-05-19 15:54:00,73.9,56.2,28.53,SSE,165,12.7,12.7,54,0.00,OVC,FEW,0.00,0.0,WeatherDisplay:10.37,2013-05-19 13:54:00,
2013-05-19 15:59:00,73.9,56.8,28.53,South,175,11.5,11.5,55,0.00,OVC,FEW,0.00,0.0,WeatherDisplay:10.37,2013-05-19 13:59:00,
2013-05-19 16:04:00,74.1,55.9,28.53,SSE,155,11.5,11.5,53,0.00,OVC,FEW,0.00,0.0,WeatherDisplay:10.37,2013-05-19 14:04:00,
2013-05-19 16:09:00,75.0,57.2,28.53,SSW,195,6.9,7.0,54,0.00,OVC,FEW,0.00,0.0,WeatherDisplay:10.37,2013-05-19 14:09:00,
2013-05-19 16:14:00,74.7,55.9,28.53,SSE,155,13.8,13.8,52,0.00,OVC,FEW,0.00,0.0,WeatherDisplay:10.37,2013-05-19 14:14:00,
2013-05-19 16:19:00,74.7,55.9,28.53,SSE,155,13.8,13.8,52,0.00,OVC,FEW,0.00,0.0,WeatherDisplay:10.37,2013-05-19 14:19:00,
2013-05-19 16:24:00,74.5,55.2,28.53,SSE,155,8.1,8.1,51,0.00,OVC,FEW,0.00,0.0,WeatherDisplay:10.37,2013-05-19 14:24:00,
2013-05-19 16:29:00,74.8,56.6,28.53,SSE,155,10.4,10.5,53,0.00,OVC,FEW,0.00,0.0,WeatherDisplay:10.37,2013-05-19 14:29:00,
2013-05-19 16:34:00,75.6,55.6,28.53,South,180,8.1,8.5,50,0.00,OVC,FEW,0.00,0.0,WeatherDisplay:10.37,2013-05-19 14:34:00,
2013-05-19 16:39:00,75.4,56.0,28.53,South,175,9.2,9.4,51,0.00,OVC,FEW,0.00,0.0,WeatherDisplay:10.37,2013-05-19 14:39:00,
2013-05-19 16:44:00,75.4,56.0,28.53,South,175,9.2,9.4,51,0.00,OVC,FEW,0.00,0.0,WeatherDisplay:10.37,2013-05-19 14:44:00,
2013-05-19 16:49:00,74.8,55.5,28.53,South,175,9.2,9.6,51,0.00,OVC,FEW,0.00,0.0,WeatherDisplay:10.37,2013-05-19 14:49:00,
2013-05-19 16:54:00,74.7,55.3,28.53,SSE,160,11.5,11.5,51,0.00,OVC,FEW,0.00,0.0,WeatherDisplay:10.37,2013-05-19 14:54:00,
2013-05-19 16:59:00,75.2,57.4,28.53,SSW,195,9.2,9.6,54,0.00,OVC,FEW,0.00,0.0,WeatherDisplay:10.37,2013-05-19 14:59:00,
2013-05-19 17:04:00,75.2,56.9,28.53,South,180,10.4,10.5,53,0.00,OVC,FEW,0.00,0.0,WeatherDisplay:10.37,2013-05-19 15:04:00,
2013-05-19 17:09:00,75.4,57.6,28.53,SSE,155,10.4,10.7,54,0.00,OVC,FEW,0.00,0.0,WeatherDisplay:10.37,2013-05-19 15:09:00,
2013-05-19 17:14:00,75.4,57.6,28.53,SSE,155,10.4,10.7,54,0.00,OVC,FEW,0.00,0.0,WeatherDisplay:10.37,2013-05-19 15:14:00,
2013-05-19 17:19:00,75.4,57.6,28.53,SSE,155,10.4,10.7,54,0.00,OVC,FEW,0.00,0.0,WeatherDisplay:10.37,2013-05-19 15:19:00,
2013-05-19 17:24:00,74.3,56.6,28.53,SSE,160,9.2,9.4,54,0.00,OVC,FEW,0.00,0.0,WeatherDisplay:10.37,2013-05-19 15:24:00,
2013-05-19 17:29:00,74.1,56.4,28.53,South,170,6.9,7.3,54,0.00,OVC,FEW,0.00,0.0,WeatherDisplay:10.37,2013-05-19 15:29:00,
2013-05-19 17:34:00,73.4,57.2,28.50,SSE,165,9.2,9.2,57,0.00,OVC,FEW,0.00,0.0,WeatherDisplay:10.37,2013-05-19 15:34:00,
2013-05-19 17:39:00,73.0,56.9,28.50,South,170,8.1,8.3,57,0.00,OVC,FEW,0.00,0.0,WeatherDisplay:10.37,2013-05-19 15:39:00,
2013-05-19 17:44:00,73.0,56.9,28.50,South,170,8.1,8.3,57,0.00,OVC,FEW,0.00,0.0,WeatherDisplay:10.37,2013-05-19 15:44:00,
2013-05-19 17:49:00,73.0,57.4,28.50,SSE,165,8.1,8.3,58,0.00,OVC,FEW,0.00,0.0,WeatherDisplay:10.37,2013-05-19 15:49:00,
2013-05-19 17:54:00,74.1,58.4,28.50,SSE,160,8.1,8.1,58,0.00,OVC,FEW,0.00,0.0,WeatherDisplay:10.37,2013-05-19 15:54:00,
2013-05-19 17:59:00,74.1,58.4,28.50,South,175,9.2,9.2,58,0.00,OVC,FEW,0.00,0.0,WeatherDisplay:10.37,2013-05-19 15:59:00,
2013-05-19 18:04:00,73.8,58.1,28.50,SSW,210,10.4,10.4,58,0.00,OVC,FEW,0.00,0.0,WeatherDisplay:10.37,2013-05-19 16:04:00,
2013-05-19 18:09:00,73.9,58.2,28.50,SE,135,11.5,11.5,58,0.00,OVC,FEW,0.00,0.0,WeatherDisplay:10.37,2013-05-19 16:09:00,
2013-05-19 18:14:00,74.1,58.4,28.50,SW,220,10.4,10.7,58,0.00,OVC,FEW,0.00,0.0,WeatherDisplay:10.37,2013-05-19 16:14:00,
2013-05-19 18:19:00,74.1,58.4,28.50,SW,220,10.4,10.7,58,0.00,OVC,FEW,0.00,0.0,WeatherDisplay:10.37,2013-05-19 16:19:00,
2013-05-19 18:24:00,73.9,58.2,28.47,South,170,11.5,11.5,58,0.00,OVC,FEW,0.00,0.0,WeatherDisplay:10.37,2013-05-19 16:24:00,
2013-05-19 18:29:00,73.6,58.8,28.47,NE,40,9.2,9.4,60,0.00,OVC,FEW,0.00,0.0,WeatherDisplay:10.37,2013-05-19 16:29:00,
2013-05-19 18:34:00,73.0,58.3,28.50,SSW,200,4.6,4.6,60,0.00,OVC,FEW,0.00,0.0,WeatherDisplay:10.37,2013-05-19 16:34:00,
2013-05-19 18:39:00,72.5,58.3,28.50,SSW,200,5.8,6.2,61,0.00,OVC,FEW,0.00,0.0,WeatherDisplay:10.37,2013-05-19 16:39:00,
2013-05-19 18:44:00,72.5,58.3,28.50,SSW,200,5.8,6.2,61,0.00,OVC,FEW,0.00,0.0,WeatherDisplay:10.37,2013-05-19 16:44:00,
2013-05-19 18:49:00,72.0,58.7,28.50,South,190,6.9,6.9,63,0.00,OVC,FEW,0.00,0.0,WeatherDisplay:10.37,2013-05-19 16:49:00,
2013-05-19 18:54:00,72.0,58.7,28.47,SW,225,6.9,6.9,63,0.00,OVC,FEW,0.00,0.0,WeatherDisplay:10.37,2013-05-19 16:54:00,
2013-05-19 18:59:00,72.0,59.1,28.47,SE,145,3.5,3.8,64,0.00,OVC,FEW,0.00,0.0,WeatherDisplay:10.37,2013-05-19 16:59:00,
2013-05-19 19:04:00,71.8,59.4,28.47,SSE,160,1.1,1.1,65,0.00,OVC,FEW,0.00,0.0,WeatherDisplay:10.37,2013-05-19 17:04:00,
2013-05-19 19:09:00,71.6,59.2,28.50,South,175,0.0,0.4,65,0.00,OVC,FEW,0.00,0.0,WeatherDisplay:10.37,2013-05-19 17:09:00,
2013-05-19 19:14:00,70.7,59.6,28.50,SE,135,0.0,0.0,68,0.00,OVC,FEW,0.00,0.0,WeatherDisplay:10.37,2013-05-19 17:14:00,
2013-05-19 19:19:00,70.7,59.6,28.50,SE,135,0.0,0.0,68,0.00,OVC,FEW,0.00,0.0,WeatherDisplay:10.37,2013-05-19 17:19:00,
2013-05-19 19:24:00,70.7,59.6,28.47,SSW,195,0.0,0.0,68,0.00,OVC,FEW,0.00,0.0,WeatherDisplay:10.37,2013-05-19 17:24:00,
2013-05-19 19:29:00,70.7,59.6,28.47,SSW,195,0.0,0.0,68,0.00,OVC,FEW,0.00,0.0,WeatherDisplay:10.37,2013-05-19 17:29:00,
2013-05-19 19:34:00,69.6,60.6,28.47,SE,130,0.0,0.0,73,0.00,OVC,FEW,0.00,0.0,WeatherDisplay:10.37,2013-05-19 17:34:00,
2013-05-19 19:39:00,69.1,60.4,28.47,North,10,0.0,0.0,74,0.00,OVC,FEW,0.00,0.0,WeatherDisplay:10.37,2013-05-19 17:39:00,
2013-05-19 19:44:00,69.1,60.4,28.47,North,10,0.0,0.0,74,0.00,OVC,FEW,0.00,0.0,WeatherDisplay:10.37,2013-05-19 17:44:00,
2013-05-19 19:49:00,67.8,60.3,28.47,NNW,340,3.5,3.5,77,0.00,OVC,FEW,0.00,0.0,WeatherDisplay:10.37,2013-05-19 17:49:00,
2013-05-19 19:54:00,64.6,55.3,28.56,NE,35,9.2,9.2,72,0.00,OVC,FEW,0.00,0.0,WeatherDisplay:10.37,2013-05-19 17:54:00,
2013-05-19 19:59:00,61.9,53.9,28.56,NNE,20,17.3,17.5,75,0.00,OVC,FEW,0.00,0.0,WeatherDisplay:10.37,2013-05-19 17:59:00,
2013-05-19 20:04:00,59.7,54.2,28.56,NNW,335,18.4,18.4,82,0.01,RA,FEW,0.01,0.0,WeatherDisplay:10.37,2013-05-19 18:04:00,
2013-05-19 20:09:00,58.5,54.6,28.56,NW,315,5.8,5.8,87,0.19,RA,FEW,0.19,0.0,WeatherDisplay:10.37,2013-05-19 18:09:00,
2013-05-19 20:14:00,57.9,54.7,28.56,NE,40,10.4,10.4,89,0.34,RA,FEW,0.34,0.0,WeatherDisplay:10.37,2013-05-19 18:14:00,
2013-05-19 20:19:00,57.9,54.7,28.56,NE,40,10.4,10.4,89,0.34,RA,FEW,0.34,0.0,WeatherDisplay:10.37,2013-05-19 18:19:00,
2013-05-19 20:24:00,57.6,55.0,28.56,NE,50,10.4,10.4,91,0.45,RA,FEW,0.45,0.0,WeatherDisplay:10.37,2013-05-19 18:24:00,
2013-05-19 20:29:00,57.6,55.0,28.56,NNE,20,9.2,9.2,91,0.49,RA,FEW,0.49,0.0,WeatherDisplay:10.37,2013-05-19 18:29:00,
2013-05-19 20:34:00,57.6,55.0,28.56,NNE,30,5.8,5.8,91,0.50,RA,FEW,0.50,0.0,WeatherDisplay:10.37,2013-05-19 18:34:00,
2013-05-19 20:39:00,57.6,55.0,28.56,North,350,5.8,5.8,91,0.51,RA,FEW,0.51,0.0,WeatherDisplay:10.37,2013-05-19 18:39:00,
2013-05-19 20:44:00,57.6,55.0,28.56,North,350,5.8,5.8,91,0.51,RA,FEW,0.51,0.0,WeatherDisplay:10.37,2013-05-19 18:44:00,
2013-05-19 20:49:00,57.4,55.1,28.56,NW,305,5.8,6.2,92,0.51,OVC,FEW,0.51,0.0,WeatherDisplay:10.37,2013-05-19 18:49:00,
2013-05-19 20:54:00,57.4,55.1,28.56,NNW,330,10.4,10.4,92,0.52,RA,FEW,0.52,0.0,WeatherDisplay:10.37,2013-05-19 18:54:00,
2013-05-19 20:59:00,57.6,55.3,28.56,North,0,8.1,8.1,92,0.52,OVC,FEW,0.52,0.0,WeatherDisplay:10.37,2013-05-19 18:59:00,
2013-05-19 21:04:00,57.7,55.4,28.56,North,0,3.5,3.5,92,0.52,RA,FEW,0.53,0.0,WeatherDisplay:10.37,2013-05-19 19:04:00,
2013-05-19 21:09:00,57.7,55.4,28.58,North,350,3.5,3.5,92,0.36,RA,FEW,0.55,0.0,WeatherDisplay:10.37,2013-05-19 19:09:00,
2013-05-19 21:14:00,57.7,55.4,28.58,North,355,2.3,2.3,92,0.24,RA,FEW,0.58,0.0,WeatherDisplay:10.37,2013-05-19 19:14:00,
2013-05-19 21:19:00,57.7,55.4,28.58,North,355,2.3,2.3,92,0.24,RA,FEW,0.58,0.0,WeatherDisplay:10.37,2013-05-19 19:19:00,
2013-05-19 21:24:00,57.6,55.3,28.58,North,5,2.3,2.4,92,0.15,RA,FEW,0.60,0.0,WeatherDisplay:10.37,2013-05-19 19:24:00,
2013-05-19 21:29:00,57.6,55.6,28.58,NNE,20,2.3,2.8,93,0.16,RA,FEW,0.65,0.0,WeatherDisplay:10.37,2013-05-19 19:29:00,
2013-05-19 21:34:00,57.4,55.4,28.56,NW,320,2.3,2.3,93,0.17,RA,FEW,0.67,0.0,WeatherDisplay:10.37,2013-05-19 19:34:00,
2013-05-19 21:39:00,57.4,55.4,28.56,NNE,15,5.8,5.8,93,0.17,RA,FEW,0.69,0.0,WeatherDisplay:10.37,2013-05-19 19:39:00,
2013-05-19 21:44:00,57.4,55.4,28.56,NNE,15,5.8,5.8,93,0.17,RA,FEW,0.69,0.0,WeatherDisplay:10.37,2013-05-19 19:44:00,
2013-05-19 21:49:00,57.2,55.2,28.56,NNE,20,5.8,5.8,93,0.19,RA,FEW,0.70,0.0,WeatherDisplay:10.37,2013-05-19 19:49:00,
2013-05-19 21:54:00,57.2,55.5,28.56,North,350,4.6,4.9,94,0.19,RA,FEW,0.71,0.0,WeatherDisplay:10.37,2013-05-19 19:54:00,
2013-05-19 21:59:00,57.2,55.5,28.56,NW,310,8.1,8.5,94,0.20,RA,FEW,0.72,0.0,WeatherDisplay:10.37,2013-05-19 19:59:00,
2013-05-19 22:04:00,57.0,55.3,28.56,NNW,330,11.5,11.5,94,0.19,,FEW,0.72,0.0,WeatherDisplay:10.37,2013-05-19 20:04:00,
2013-05-19 22:09:00,57.0,55.3,28.58,NW,310,4.6,4.9,94,0.17,CLR,FEW,0.72,0.0,WeatherDisplay:10.37,2013-05-19 20:09:00,
2013-05-19 22:14:00,57.0,55.3,28.58,NNW,335,8.1,8.3,94,0.14,CLR,FEW,0.72,0.0,WeatherDisplay:10.37,2013-05-19 20:14:00,
2013-05-19 22:19:00,57.0,55.3,28.58,NNW,335,8.1,8.3,94,0.14,CLR,FEW,0.72,0.0,WeatherDisplay:10.37,2013-05-19 20:19:00,
2013-05-19 22:24:00,57.0,55.3,28.56,NNW,335,5.8,5.8,94,0.12,CLR,FEW,0.72,0.0,WeatherDisplay:10.37,2013-05-19 20:24:00,
2013-05-19 22:29:00,57.0,55.3,28.56,NW,310,11.5,11.5,94,0.07,CLR,FEW,0.72,0.0,WeatherDisplay:10.37,2013-05-19 20:29:00,
2013-05-19 22:34:00,56.1,54.1,28.58,WNW,290,11.5,11.5,93,0.05,CLR,FEW,0.72,0.0,WeatherDisplay:10.37,2013-05-19 20:34:00,
2013-05-19 22:39:00,55.4,52.8,28.58,NNW,335,13.8,13.8,91,0.03,CLR,FEW,0.72,0.0,WeatherDisplay:10.37,2013-05-19 20:39:00,
2013-05-19 22:44:00,55.4,52.8,28.58,NNW,335,13.8,13.8,91,0.03,CLR,FEW,0.72,0.0,WeatherDisplay:10.37,2013-05-19 20:44:00,
2013-05-19 22:49:00,55.2,52.6,28.58,NNW,335,10.4,10.4,91,0.02,CLR,FEW,0.72,0.0,WeatherDisplay:10.37,2013-05-19 20:49:00,
2013-05-19 22:54:00,54.5,51.9,28.61,NNW,335,11.5,11.5,91,0.01,CLR,FEW,0.72,0.0,WeatherDisplay:10.37,2013-05-19 20:54:00,
2013-05-19 22:59:00,54.1,51.3,28.61,WNW,295,9.2,9.8,90,0.00,CLR,FEW,0.72,0.0,WeatherDisplay:10.37,2013-05-19 20:59:00,
2013-05-19 23:04:00,53.8,50.9,28.61,NNE,15,5.8,6.0,90,0.00,CLR,FEW,0.72,0.0,WeatherDisplay:10.37,2013-05-19 21:04:00,
2013-05-19 23:09:00,53.2,50.7,28.61,WSW,255,5.8,5.8,91,0.00,CLR,FEW,0.72,0.0,WeatherDisplay:10.37,2013-05-19 21:09:00,
2013-05-19 23:14:00,53.2,50.7,28.61,WNW,300,8.1,8.1,91,0.00,CLR,FEW,0.72,0.0,WeatherDisplay:10.37,2013-05-19 21:14:00,
2013-05-19 23:19:00,53.2,50.7,28.61,WNW,300,8.1,8.1,91,0.00,CLR,FEW,0.72,0.0,WeatherDisplay:10.37,2013-05-19 21:19:00,
2013-05-19 23:24:00,53.2,50.7,28.61,WNW,300,8.1,8.1,91,0.00,CLR,FEW,0.72,0.0,WeatherDisplay:10.37,2013-05-19 21:24:00,
2013-05-19 23:29:00,52.9,50.6,28.61,West,275,5.8,5.8,92,0.00,CLR,FEW,0.72,0.0,WeatherDisplay:10.37,2013-05-19 21:29:00,
2013-05-19 23:34:00,52.7,50.4,28.61,NW,325,8.1,8.3,92,0.00,CLR,FEW,0.72,0.0,WeatherDisplay:10.37,2013-05-19 21:34:00,
2013-05-19 23:39:00,52.7,50.4,28.61,NW,325,8.1,8.3,92,0.00,CLR,FEW,0.72,0.0,WeatherDisplay:10.37,2013-05-19 21:39:00,
2013-05-19 23:44:00,52.7,50.4,28.61,NW,325,8.1,8.3,92,0.00,CLR,FEW,0.72,0.0,WeatherDisplay:10.37,2013-05-19 21:44:00,
2013-05-19 23:49:00,52.7,49.8,28.61,North,10,12.7,12.8,90,0.00,CLR,FEW,0.72,0.0,WeatherDisplay:10.37,2013-05-19 21:49:00,
2013-05-19 23:54:00,52.5,49.7,28.61,NNW,340,8.1,8.3,90,0.00,CLR,FEW,0.72,0.0,WeatherDisplay:10.37,2013-05-19 21:54:00,
2013-05-19 23:59:00,52.2,49.6,28.61,NNW,335,9.2,9.2,91,0.00,CLR,FEW,0.72,0.0,WeatherDisplay:10.37,2013-05-19 21:59:00,